Time;durP1;ratioP1;P1;durP2;ratioP2;P2;SDS_P1;SDS_P2;PMS_P1;PMS_P2;Temp;Humidity;BMP_temperature;BMP_pressure;BME280_temperature;BME280_humidity;BME280_pressure;Samples;Min_cycle;Max_cycle;Signal;HPM_P1;HPM_P2
2022/01/30 00:00:56;;;;;;;9.48;5.53;;;0.10;99.90;;;;;;5116055;28;20031;-82
2022/01/30 00:03:22;;;;;;;9.73;5.38;;;0.10;99.90;;;;;;5116177;28;20476;-82
2022/01/30 00:05:48;;;;;;;8.73;5.43;;;0.00;99.90;;;;;;5097718;28;20034;-81
2022/01/30 00:08:14;;;;;;;10.15;6.22;;;0.10;99.90;;;;;;5115949;28;20020;-82
2022/01/30 00:10:40;;;;;;;10.77;5.85;;;0.10;99.90;;;;;;5116197;28;20384;-82
2022/01/30 00:13:11;;;;;;;9.68;4.78;;;0.10;99.90;;;;;;5116146;28;20015;-81
2022/01/30 00:15:52;;;;;;;8.27;4.85;;;0.10;99.90;;;;;;5116015;28;20023;-82
2022/01/30 00:19:07;;;;;;;8.95;5.10;;;0.10;99.90;;;;;;5115909;28;20034;-82
2022/01/30 00:21:13;;;;;;;7.75;5.15;;;0.10;99.90;;;;;;5109632;28;20036;-82
2022/01/30 00:23:47;;;;;;;9.80;5.50;;;0.10;99.90;;;;;;5116076;28;20456;-81
2022/01/30 00:26:15;;;;;;;8.02;5.10;;;0.10;99.90;;;;;;5097235;28;20070;-82
2022/01/30 00:28:41;;;;;;;7.97;5.28;;;0.10;99.90;;;;;;5115778;28;20047;-82
2022/01/30 00:31:07;;;;;;;9.88;5.82;;;0.20;99.90;;;;;;5097478;28;20046;-82
2022/01/30 00:33:33;;;;;;;7.97;4.70;;;0.20;99.90;;;;;;5115457;28;20027;-81
2022/01/30 00:35:58;;;;;;;8.20;5.13;;;0.20;99.90;;;;;;5097234;28;20072;-82
2022/01/30 00:38:26;;;;;;;12.23;6.55;;;0.20;99.90;;;;;;5097277;28;20026;-82
2022/01/30 00:40:52;;;;;;;10.50;5.18;;;0.20;99.90;;;;;;5097087;28;20507;-82
2022/01/30 00:43:19;;;;;;;11.32;5.95;;;0.20;99.90;;;;;;5115300;28;20449;-82
2022/01/30 00:45:46;;;;;;;11.77;6.30;;;0.20;99.90;;;;;;5115202;28;20032;-82
2022/01/30 00:48:11;;;;;;;7.55;4.65;;;0.20;99.90;;;;;;5115205;28;20065;-82
2022/01/30 00:50:37;;;;;;;9.27;5.13;;;0.20;99.90;;;;;;5096876;28;20024;-82
2022/01/30 00:53:04;;;;;;;6.78;4.18;;;0.20;99.90;;;;;;5115300;28;20491;-82
2022/01/30 00:55:30;;;;;;;9.25;4.78;;;0.30;99.90;;;;;;5115147;28;20049;-82
2022/01/30 00:57:58;;;;;;;8.68;4.60;;;0.30;99.90;;;;;;5114991;28;20053;-82
2022/01/30 01:00:25;;;;;;;7.85;4.47;;;0.30;99.90;;;;;;5115318;28;20046;-82
2022/01/30 01:02:51;;;;;;;7.70;4.25;;;0.30;99.90;;;;;;5111960;27;20028;-79
2022/01/30 01:05:17;;;;;;;8.10;3.97;;;0.40;99.90;;;;;;5114021;28;20024;-82
2022/01/30 01:07:46;;;;;;;9.80;4.10;;;0.60;99.90;;;;;;5114685;28;20040;-82
2022/01/30 01:10:33;;;;;;;7.20;4.20;;;0.60;99.90;;;;;;5113520;28;20456;-82
2022/01/30 01:13:41;;;;;;;6.70;4.03;;;0.60;99.90;;;;;;5114789;27;20456;-82
2022/01/30 01:24:06;;;;;;;7.45;4.35;;;0.60;99.90;;;;;;5114367;28;20152;-82
2022/01/30 01:26:33;;;;;;;9.32;5.03;;;0.60;99.90;;;;;;5112914;28;20361;-82
2022/01/30 01:28:59;;;;;;;6.85;4.63;;;0.60;99.90;;;;;;5112143;28;20024;-81
2022/01/30 01:31:26;;;;;;;8.40;4.40;;;0.60;99.90;;;;;;5113318;28;20029;-82
2022/01/30 01:34:11;;;;;;;10.73;4.55;;;0.50;99.90;;;;;;5114495;28;20047;-82
2022/01/30 01:36:37;;;;;;;9.90;5.07;;;0.50;99.90;;;;;;5113069;28;20020;-82
2022/01/30 01:39:04;;;;;;;8.30;4.75;;;0.50;99.90;;;;;;5114251;28;20030;-82
2022/01/30 01:41:32;;;;;;;10.10;4.78;;;0.60;99.90;;;;;;5114165;28;20029;-82
2022/01/30 01:43:58;;;;;;;6.97;4.30;;;0.50;99.90;;;;;;5114030;28;20364;-82
2022/01/30 01:46:28;;;;;;;6.53;4.10;;;0.60;99.90;;;;;;5114449;28;20030;-82
2022/01/30 01:48:55;;;;;;;6.75;3.70;;;0.70;99.90;;;;;;5114421;28;20045;-82
2022/01/30 01:51:25;;;;;;;7.25;3.80;;;0.80;99.90;;;;;;5114223;28;20051;-82
2022/01/30 01:53:55;;;;;;;6.70;3.78;;;0.80;99.90;;;;;;5114267;28;20024;-82
2022/01/30 01:56:22;;;;;;;7.40;3.60;;;0.70;99.90;;;;;;5113231;28;20027;-82
2022/01/30 01:58:48;;;;;;;6.25;3.95;;;0.70;99.90;;;;;;5113056;28;20031;-82
2022/01/30 02:01:14;;;;;;;6.95;3.42;;;0.80;99.90;;;;;;5115603;28;20099;-82
2022/01/30 02:03:41;;;;;;;5.28;3.47;;;0.80;99.90;;;;;;5115364;28;20047;-83
2022/01/30 02:06:12;;;;;;;7.03;3.97;;;0.80;99.90;;;;;;5114003;28;20019;-83
2022/01/30 02:08:42;;;;;;;5.80;3.13;;;0.80;99.90;;;;;;5114360;28;20494;-83
2022/01/30 02:11:30;;;;;;;5.13;2.58;;;0.80;99.90;;;;;;5114821;28;20035;-83
2022/01/30 02:27:25;;;;;;;8.45;4.57;;;0.90;99.90;;;;;;5113925;28;20070;-82
2022/01/30 02:29:51;;;;;;;7.78;4.38;;;0.90;99.90;;;;;;5112584;28;20064;-82
2022/01/30 02:32:19;;;;;;;8.45;4.43;;;0.90;99.90;;;;;;5113758;28;20023;-82
2022/01/30 02:34:44;;;;;;;6.55;3.38;;;1.00;99.90;;;;;;5112531;28;20391;-83
2022/01/30 02:37:12;;;;;;;4.63;2.65;;;1.00;99.90;;;;;;5113755;28;20016;-83
2022/01/30 02:39:38;;;;;;;5.68;2.88;;;1.00;99.90;;;;;;5112477;28;20459;-83
2022/01/30 02:42:04;;;;;;;6.18;3.17;;;1.00;99.90;;;;;;5114293;28;20024;-83
2022/01/30 02:44:37;;;;;;;10.13;5.25;;;0.90;99.90;;;;;;5116056;28;20043;-84
2022/01/30 02:47:09;;;;;;;17.85;7.20;;;0.90;99.90;;;;;;5116447;28;20024;-84
2022/01/30 02:52:08;;;;;;;7.50;3.58;;;0.90;99.90;;;;;;5118088;27;20019;-83
2022/01/30 02:54:34;;;;;;;7.55;4.20;;;0.90;99.90;;;;;;5117520;28;20015;-84
2022/01/30 02:57:00;;;;;;;6.28;3.50;;;0.90;99.90;;;;;;5117507;28;20068;-83
2022/01/30 02:59:27;;;;;;;6.68;3.85;;;0.90;99.90;;;;;;5117536;28;20471;-83
2022/01/30 03:01:52;;;;;;;7.50;3.65;;;0.90;99.90;;;;;;5116065;28;20032;-83
2022/01/30 03:04:18;;;;;;;6.15;3.45;;;0.90;99.90;;;;;;5117437;28;20008;-83
2022/01/30 03:06:45;;;;;;;7.32;4.47;;;0.90;99.90;;;;;;5116990;28;20027;-83
2022/01/30 03:09:11;;;;;;;6.70;3.78;;;0.90;99.90;;;;;;5115985;28;20026;-83
2022/01/30 03:11:37;;;;;;;6.32;3.63;;;0.90;99.90;;;;;;5117357;28;20027;-83
2022/01/30 03:14:04;;;;;;;9.60;5.50;;;0.90;99.90;;;;;;5117042;28;20028;-84
2022/01/30 03:16:30;;;;;;;7.80;4.03;;;1.00;99.90;;;;;;5115748;28;20034;-83
2022/01/30 03:18:56;;;;;;;6.53;3.33;;;0.90;99.90;;;;;;5115609;28;20019;-84
2022/01/30 03:21:22;;;;;;;4.65;2.53;;;0.90;99.90;;;;;;5117124;28;20161;-84
2022/01/30 03:23:48;;;;;;;4.30;2.50;;;0.90;99.90;;;;;;5117435;28;20027;-85
2022/01/30 03:26:15;;;;;;;3.78;2.00;;;0.90;99.90;;;;;;5115926;28;20028;-85
2022/01/30 03:28:43;;;;;;;5.18;2.30;;;0.90;99.90;;;;;;5116855;28;20106;-85
2022/01/30 03:31:12;;;;;;;3.70;2.13;;;0.90;99.90;;;;;;5117190;28;20073;-84
2022/01/30 03:33:38;;;;;;;4.10;2.08;;;0.90;99.90;;;;;;5115905;28;20030;-84
2022/01/30 03:36:05;;;;;;;4.25;2.50;;;0.90;99.90;;;;;;5115703;28;20023;-84
2022/01/30 03:38:31;;;;;;;4.75;3.40;;;1.00;99.90;;;;;;5117482;28;20028;-84
2022/01/30 03:40:56;;;;;;;5.03;3.40;;;1.00;99.90;;;;;;5116829;28;20107;-83
2022/01/30 03:43:22;;;;;;;4.70;3.40;;;1.00;99.90;;;;;;5115642;28;20458;-83
2022/01/30 03:45:48;;;;;;;4.40;2.70;;;1.00;99.90;;;;;;5116757;28;20028;-83
2022/01/30 03:48:14;;;;;;;3.65;2.60;;;0.90;99.90;;;;;;5117541;28;20026;-83
2022/01/30 03:50:44;;;;;;;8.73;5.25;;;0.90;99.90;;;;;;5116625;28;20019;-83
2022/01/30 03:53:11;;;;;;;1.80;1.33;;;0.90;99.90;;;;;;5116706;28;20463;-82
2022/01/30 03:55:38;;;;;;;2.50;1.30;;;1.00;99.90;;;;;;5116549;28;20024;-83
2022/01/30 03:58:05;;;;;;;2.50;1.20;;;1.00;99.90;;;;;;5115543;28;20490;-83
2022/01/30 04:00:31;;;;;;;1.33;0.60;;;1.00;99.90;;;;;;5117452;28;20035;-83
2022/01/30 04:02:56;;;;;;;1.60;0.70;;;1.10;99.90;;;;;;5115608;28;20031;-83
2022/01/30 04:05:22;;;;;;;3.40;0.70;;;1.10;99.90;;;;;;5117097;28;20100;-83
2022/01/30 04:07:48;;;;;;;1.38;1.00;;;1.00;99.90;;;;;;5116859;28;20027;-83
2022/01/30 04:10:14;;;;;;;2.60;1.23;;;1.00;99.90;;;;;;5116791;28;20028;-83
2022/01/30 04:12:41;;;;;;;2.35;1.13;;;1.00;99.90;;;;;;5116273;28;20038;-83
2022/01/30 04:15:08;;;;;;;3.35;1.35;;;1.00;99.90;;;;;;5116175;28;20057;-83
2022/01/30 04:17:34;;;;;;;2.13;1.25;;;1.00;99.90;;;;;;5114682;28;20089;-83
2022/01/30 04:20:00;;;;;;;3.22;1.60;;;1.00;99.90;;;;;;5116156;28;20468;-83
2022/01/30 04:22:26;;;;;;;10.05;4.28;;;1.00;99.90;;;;;;5114781;28;20078;-83
2022/01/30 04:24:52;;;;;;;5.53;2.97;;;1.00;99.90;;;;;;5115675;28;20076;-84
2022/01/30 04:27:20;;;;;;;5.55;3.15;;;1.00;99.90;;;;;;5115979;28;20019;-84
2022/01/30 04:29:46;;;;;;;2.42;1.38;;;1.00;99.90;;;;;;5115965;28;20022;-84
2022/01/30 04:32:13;;;;;;;2.70;1.35;;;1.00;99.90;;;;;;5115769;28;20391;-84
2022/01/30 04:34:41;;;;;;;4.03;1.60;;;1.00;99.90;;;;;;5115708;28;20472;-84
2022/01/30 04:37:16;;;;;;;5.15;2.40;;;1.10;99.90;;;;;;5114255;28;20096;-84
2022/01/30 04:58:47;;;;;;;3.30;2.25;;;1.20;99.90;;;;;;5115878;28;20128;-83
2022/01/30 05:08:26;;;;;;;3.78;2.55;;;1.30;99.90;;;;;;5115533;28;20032;-82
2022/01/30 05:10:55;;;;;;;4.15;2.33;;;1.30;99.90;;;;;;5115644;28;20016;-82
2022/01/30 05:13:25;;;;;;;6.28;2.55;;;1.40;99.90;;;;;;5113946;28;20080;-81
2022/01/30 05:15:51;;;;;;;8.05;3.00;;;1.40;99.90;;;;;;5113825;28;20027;-82
2022/01/30 05:18:23;;;;;;;5.75;2.83;;;1.50;99.90;;;;;;5115457;28;20027;-82
2022/01/30 05:20:49;;;;;;;8.68;4.63;;;1.50;99.90;;;;;;5115396;28;20048;-82
2022/01/30 05:23:16;;;;;;;76.40;25.27;;;1.60;99.90;;;;;;5115165;28;20089;-82
2022/01/30 05:25:47;;;;;;;90.22;27.80;;;1.60;99.90;;;;;;5115304;28;20032;-82
2022/01/30 05:28:14;;;;;;;20.38;8.00;;;1.50;99.90;;;;;;5115760;28;20015;-82
2022/01/30 05:30:40;;;;;;;12.60;4.88;;;1.40;99.90;;;;;;5115399;28;20027;-82
2022/01/30 05:33:06;;;;;;;2.67;1.50;;;1.40;99.90;;;;;;5115624;28;20095;-82
2022/01/30 05:35:33;;;;;;;12.95;5.57;;;1.50;99.90;;;;;;5114518;28;20023;-82
2022/01/30 05:37:59;;;;;;;15.57;6.30;;;1.50;99.90;;;;;;5114018;28;20051;-82
2022/01/30 05:40:25;;;;;;;7.72;3.55;;;1.50;99.90;;;;;;5114057;28;20024;-82
2022/01/30 05:42:51;;;;;;;4.82;2.08;;;1.50;99.90;;;;;;5115775;28;20072;-81
2022/01/30 05:45:29;;;;;;;3.55;1.33;;;1.40;99.90;;;;;;5116119;28;20063;-81
2022/01/30 05:48:03;;;;;;;7.32;3.33;;;1.40;99.90;;;;;;5115523;28;20027;-81
2022/01/30 05:50:29;;;;;;;20.85;8.88;;;1.40;99.90;;;;;;5113752;28;20019;-81
2022/01/30 05:52:55;;;;;;;18.20;10.10;;;1.40;99.90;;;;;;5113673;28;20028;-83
2022/01/30 05:55:21;;;;;;;20.63;12.07;;;1.40;99.90;;;;;;5112988;28;20020;-83
2022/01/30 05:57:47;;;;;;;5.97;3.63;;;1.50;99.90;;;;;;5113822;28;20024;-84
2022/01/30 06:00:15;;;;;;;3.67;1.20;;;1.60;99.90;;;;;;5114633;28;20028;-84
2022/01/30 06:02:44;;;;;;;2.35;1.20;;;1.60;99.90;;;;;;5113452;28;20119;-85
2022/01/30 06:05:13;;;;;;;3.65;1.15;;;1.70;99.90;;;;;;5114391;28;20388;-85
2022/01/30 06:07:47;;;;;;;3.47;1.80;;;1.60;99.90;;;;;;5113152;28;20106;-84
2022/01/30 06:10:13;;;;;;;3.42;1.90;;;1.60;99.90;;;;;;5113600;28;20388;-84
2022/01/30 06:12:39;;;;;;;3.50;1.65;;;1.60;99.90;;;;;;5113544;28;20078;-84
2022/01/30 06:15:05;;;;;;;4.75;2.67;;;1.60;99.90;;;;;;5113463;28;20051;-85
2022/01/30 06:17:31;;;;;;;5.05;2.53;;;1.60;99.90;;;;;;5115173;28;20024;-84
2022/01/30 06:19:56;;;;;;;3.92;2.10;;;1.60;99.90;;;;;;5117321;28;20085;-84
2022/01/30 06:22:23;;;;;;;4.72;2.13;;;1.50;99.90;;;;;;5119170;28;20028;-84
2022/01/30 06:24:48;;;;;;;5.68;3.08;;;1.50;99.90;;;;;;5117362;28;20070;-84
2022/01/30 06:27:14;;;;;;;5.13;3.20;;;1.50;99.90;;;;;;5117389;28;20391;-84
2022/01/30 06:29:40;;;;;;;5.72;2.75;;;1.60;99.90;;;;;;5118692;28;20077;-84
2022/01/30 06:32:06;;;;;;;4.80;3.00;;;1.50;99.90;;;;;;5119157;28;20023;-84
2022/01/30 06:34:31;;;;;;;5.15;3.00;;;1.70;99.90;;;;;;5117008;28;20057;-84
2022/01/30 06:36:57;;;;;;;7.50;3.20;;;1.60;99.90;;;;;;5117243;28;20066;-83
2022/01/30 06:39:23;;;;;;;7.03;3.17;;;1.60;99.90;;;;;;5116914;28;20028;-83
2022/01/30 06:41:49;;;;;;;7.25;4.10;;;1.60;99.90;;;;;;5118165;27;20043;-82
2022/01/30 06:44:14;;;;;;;3.67;2.28;;;1.60;99.90;;;;;;5116936;28;20282;-82
2022/01/30 06:46:43;;;;;;;4.68;2.33;;;1.60;99.90;;;;;;5117928;28;20057;-82
2022/01/30 06:49:08;;;;;;;4.35;2.40;;;1.60;99.90;;;;;;5118145;28;20019;-82
2022/01/30 06:51:34;;;;;;;5.35;3.17;;;1.60;99.90;;;;;;5116565;28;20030;-83
2022/01/30 06:54:00;;;;;;;7.22;3.83;;;1.60;99.90;;;;;;5116799;28;20049;-83
2022/01/30 06:56:26;;;;;;;5.85;3.50;;;1.70;99.90;;;;;;5118033;28;20020;-82
2022/01/30 06:58:55;;;;;;;5.32;2.67;;;1.70;99.90;;;;;;5116627;28;20132;-83
2022/01/30 07:01:22;;;;;;;15.23;5.95;;;1.60;99.90;;;;;;5117951;28;20060;-83
2022/01/30 07:03:48;;;;;;;9.63;5.25;;;1.60;99.90;;;;;;5117102;28;20026;-83
2022/01/30 07:06:15;;;;;;;14.00;6.40;;;1.60;99.90;;;;;;5117627;27;20470;-83
2022/01/30 07:08:41;;;;;;;7.15;3.92;;;1.60;99.90;;;;;;5115989;28;20479;-83
2022/01/30 07:11:07;;;;;;;2.25;1.38;;;1.60;99.90;;;;;;5116170;28;20073;-82
2022/01/30 07:13:32;;;;;;;2.70;1.42;;;1.60;99.90;;;;;;5115934;28;20131;-82
2022/01/30 07:15:58;;;;;;;9.55;4.47;;;1.60;99.90;;;;;;5116323;28;20027;-80
2022/01/30 07:18:24;;;;;;;12.55;6.35;;;1.70;99.90;;;;;;5116092;28;20028;-80
2022/01/30 07:20:49;;;;;;;13.93;6.65;;;1.70;99.90;;;;;;5117750;28;20077;-80
2022/01/30 07:23:15;;;;;;;11.95;5.13;;;1.70;99.90;;;;;;5117037;28;20058;-80
2022/01/30 07:25:41;;;;;;;26.77;11.38;;;1.70;99.90;;;;;;5117040;28;20114;-80
2022/01/30 07:28:07;;;;;;;11.65;4.97;;;1.80;99.90;;;;;;5115754;28;20020;-80
2022/01/30 07:30:34;;;;;;;39.95;17.08;;;1.90;99.90;;;;;;5116279;28;20390;-81
2022/01/30 07:33:00;;;;;;;30.75;13.00;;;2.00;99.90;;;;;;5115901;28;20106;-81
2022/01/30 07:35:26;;;;;;;12.68;6.07;;;1.90;99.90;;;;;;5115583;28;20059;-80
2022/01/30 07:37:52;;;;;;;9.90;4.93;;;1.90;99.90;;;;;;5117272;28;20034;-80
2022/01/30 07:40:19;;;;;;;4.78;2.83;;;1.90;99.90;;;;;;5117088;28;20024;-80
2022/01/30 07:42:44;;;;;;;5.88;2.72;;;1.90;99.90;;;;;;5117573;28;20033;-80
2022/01/30 07:45:10;;;;;;;5.25;2.65;;;1.80;99.90;;;;;;5115522;28;20110;-80
2022/01/30 07:47:36;;;;;;;8.05;4.22;;;1.80;99.90;;;;;;5116953;28;20472;-80
2022/01/30 07:50:02;;;;;;;8.35;3.60;;;1.80;99.90;;;;;;5115574;28;20047;-81
2022/01/30 07:52:28;;;;;;;4.28;1.98;;;1.90;99.90;;;;;;5117481;28;20024;-81
2022/01/30 07:54:53;;;;;;;39.47;15.40;;;1.90;99.90;;;;;;5117067;28;20045;-81
2022/01/30 07:57:19;;;;;;;25.10;11.73;;;1.90;99.90;;;;;;5116760;28;20379;-81
2022/01/30 07:59:45;;;;;;;30.63;12.93;;;1.90;99.90;;;;;;5116921;28;20028;-81
2022/01/30 08:02:11;;;;;;;25.45;11.68;;;1.90;99.90;;;;;;5115626;28;20450;-81
2022/01/30 08:04:37;;;;;;;14.93;7.10;;;1.90;99.90;;;;;;5117452;28;20068;-81
2022/01/30 08:07:03;;;;;;;17.48;8.20;;;1.90;99.90;;;;;;5116828;28;20092;-80
2022/01/30 08:09:29;;;;;;;12.60;6.70;;;1.90;99.90;;;;;;5117679;28;20472;-80
2022/01/30 08:11:55;;;;;;;8.10;4.13;;;1.90;99.90;;;;;;5115823;28;20020;-80
2022/01/30 08:14:21;;;;;;;5.57;2.38;;;2.00;99.90;;;;;;5116107;28;20417;-80
2022/01/30 08:16:47;;;;;;;5.13;1.98;;;2.00;99.90;;;;;;5115691;28;20033;-82
2022/01/30 08:19:13;;;;;;;4.55;2.45;;;2.10;99.90;;;;;;5115164;28;20030;-82
2022/01/30 08:21:38;;;;;;;3.40;1.77;;;2.30;99.90;;;;;;5117211;28;20027;-81
2022/01/30 08:24:05;;;;;;;2.20;1.40;;;2.40;99.90;;;;;;5116582;28;20091;-81
2022/01/30 08:26:30;;;;;;;2.47;1.27;;;2.50;99.90;;;;;;5116581;28;20015;-82
2022/01/30 08:28:56;;;;;;;2.10;0.80;;;2.60;99.90;;;;;;5116473;28;20099;-82
2022/01/30 08:31:21;;;;;;;1.65;0.80;;;2.70;99.90;;;;;;5116890;28;20027;-80
2022/01/30 08:33:47;;;;;;;0.50;0.40;;;2.80;99.90;;;;;;5117176;28;20027;-81
2022/01/30 08:36:13;;;;;;;0.40;0.40;;;3.00;99.90;;;;;;5116838;28;20023;-81
2022/01/30 08:38:39;;;;;;;1.15;0.65;;;3.20;99.90;;;;;;5117612;28;20024;-81
2022/01/30 08:41:04;;;;;;;0.90;0.40;;;3.40;99.90;;;;;;5115652;28;20162;-81
2022/01/30 08:43:31;;;;;;;1.00;0.60;;;3.40;99.90;;;;;;5117091;28;20027;-81
2022/01/30 08:45:59;;;;;;;1.73;0.90;;;3.60;99.90;;;;;;5117100;28;20028;-81
2022/01/30 08:48:27;;;;;;;2.55;1.20;;;3.60;99.90;;;;;;5116848;28;20035;-81
2022/01/30 08:50:53;;;;;;;3.00;1.33;;;3.60;99.90;;;;;;5115994;28;20042;-81
2022/01/30 08:53:19;;;;;;;1.45;0.43;;;3.50;99.90;;;;;;5117156;28;20543;-81
2022/01/30 08:55:45;;;;;;;1.45;0.40;;;3.50;99.90;;;;;;5115545;28;20027;-81
2022/01/30 08:58:10;;;;;;;1.40;0.70;;;3.50;99.90;;;;;;5116668;28;20023;-81
2022/01/30 09:00:39;;;;;;;1.98;0.90;;;3.40;99.90;;;;;;5115510;28;20031;-81
2022/01/30 09:03:06;;;;;;;1.83;0.80;;;3.40;99.90;;;;;;5115428;28;20020;-81
2022/01/30 09:05:33;;;;;;;1.05;0.60;;;3.50;99.90;;;;;;5115579;28;20024;-81
2022/01/30 09:08:03;;;;;;;2.80;0.80;;;3.50;99.90;;;;;;5116068;28;20020;-80
2022/01/30 09:10:30;;;;;;;1.70;0.80;;;3.60;99.90;;;;;;5115657;28;20024;-81
2022/01/30 09:12:56;;;;;;;1.23;0.60;;;3.80;99.90;;;;;;5115588;28;20107;-80
2022/01/30 09:15:22;;;;;;;1.77;0.95;;;3.80;99.90;;;;;;5115440;28;20066;-80
2022/01/30 09:17:47;;;;;;;2.40;1.10;;;3.90;99.90;;;;;;5115381;28;20026;-81
2022/01/30 09:20:13;;;;;;;2.22;1.13;;;3.90;99.90;;;;;;5113955;28;20035;-80
2022/01/30 09:22:39;;;;;;;1.02;0.50;;;3.80;99.90;;;;;;5113725;28;20023;-80
2022/01/30 09:25:06;;;;;;;1.10;0.68;;;3.80;99.90;;;;;;5113301;28;20165;-81
2022/01/30 09:27:32;;;;;;;1.45;0.60;;;3.80;99.90;;;;;;5115107;28;20028;-80
2022/01/30 09:29:58;;;;;;;1.83;0.70;;;3.90;99.90;;;;;;5115090;28;20050;-80
2022/01/30 09:32:24;;;;;;;1.65;0.93;;;4.10;99.90;;;;;;5114803;28;20035;-80
2022/01/30 09:34:49;;;;;;;3.85;0.77;;;4.00;99.90;;;;;;5114343;28;20023;-80
2022/01/30 09:37:17;;;;;;;2.05;1.33;;;4.00;99.90;;;;;;5113200;28;20118;-80
2022/01/30 09:39:43;;;;;;;1.48;0.80;;;4.10;99.90;;;;;;5114606;28;20020;-80
2022/01/30 09:42:09;;;;;;;2.42;1.60;;;4.10;99.90;;;;;;5114957;28;20474;-81
2022/01/30 09:44:39;;;;;;;2.25;1.50;;;4.10;99.90;;;;;;5114496;28;20019;-81
2022/01/30 09:47:10;;;;;;;2.63;1.38;;;4.10;99.90;;;;;;5114453;28;20428;-81
2022/01/30 09:49:39;;;;;;;1.98;1.20;;;4.10;99.90;;;;;;5114275;28;20015;-81
2022/01/30 09:52:07;;;;;;;4.10;1.35;;;4.10;99.90;;;;;;5114299;28;20042;-81
2022/01/30 09:54:33;;;;;;;2.10;1.27;;;4.20;99.90;;;;;;5114265;28;20019;-81
2022/01/30 09:56:59;;;;;;;2.42;0.82;;;4.30;99.90;;;;;;5114429;27;20458;-81
2022/01/30 09:59:25;;;;;;;1.27;0.70;;;4.30;99.90;;;;;;5114648;28;20042;-81
2022/01/30 10:01:51;;;;;;;1.95;0.98;;;4.30;99.90;;;;;;5112642;28;20562;-81
2022/01/30 10:04:16;;;;;;;2.47;1.38;;;4.30;99.90;;;;;;5113207;28;20062;-81
2022/01/30 10:07:00;;;;;;;1.80;0.90;;;4.30;99.90;;;;;;5114934;28;20051;-82
2022/01/30 10:09:28;;;;;;;1.88;0.77;;;4.30;99.90;;;;;;5113632;28;20031;-82
2022/01/30 10:12:16;;;;;;;3.25;1.60;;;4.20;99.90;;;;;;5114229;28;20383;-82
2022/01/30 10:15:04;;;;;;;5.93;3.40;;;4.30;99.90;;;;;;5113986;28;20024;-83
2022/01/30 10:17:50;;;;;;;8.52;3.97;;;4.30;99.90;;;;;;5114042;28;20024;-83
2022/01/30 10:20:17;;;;;;;7.78;4.97;;;4.40;99.90;;;;;;5112530;28;20030;-83
2022/01/30 10:22:48;;;;;;;3.80;1.95;;;4.40;99.90;;;;;;5113707;28;20098;-83
2022/01/30 10:25:20;;;;;;;3.40;1.35;;;4.50;99.90;;;;;;5113879;28;20031;-83
2022/01/30 10:27:47;;;;;;;2.85;1.20;;;4.50;99.90;;;;;;5112896;28;20400;-81
2022/01/30 10:30:18;;;;;;;2.72;1.30;;;4.60;99.90;;;;;;5112833;28;20490;-80
2022/01/30 10:32:55;;;;;;;2.17;1.40;;;4.70;99.90;;;;;;5114016;28;20027;-83
2022/01/30 10:35:20;;;;;;;2.60;1.20;;;4.90;99.90;;;;;;5113777;28;20028;-83
2022/01/30 10:37:46;;;;;;;1.90;0.90;;;4.90;99.90;;;;;;5115185;28;20549;-83
2022/01/30 10:40:19;;;;;;;2.50;1.65;;;4.80;99.90;;;;;;5114584;28;20476;-83
2022/01/30 10:42:50;;;;;;;1.90;1.00;;;4.80;99.90;;;;;;5114409;28;20059;-83
2022/01/30 10:45:19;;;;;;;2.22;1.10;;;4.80;99.90;;;;;;5113677;28;20027;-83
2022/01/30 10:47:45;;;;;;;2.25;1.00;;;4.80;99.90;;;;;;5113806;28;20370;-83
2022/01/30 10:50:15;;;;;;;2.42;1.10;;;4.80;99.90;;;;;;5113503;28;20046;-83
2022/01/30 10:53:21;;;;;;;2.88;1.00;;;4.70;99.90;;;;;;5113425;28;20047;-85
2022/01/30 10:55:48;;;;;;;2.50;0.90;;;4.80;99.90;;;;;;5101710;27;20055;-84
2022/01/30 10:58:17;;;;;;;1.00;0.47;;;4.70;99.90;;;;;;5113532;28;20051;-82
2022/01/30 11:00:49;;;;;;;4.18;0.50;;;4.80;99.90;;;;;;5114400;28;20411;-82
2022/01/30 11:03:34;;;;;;;2.50;0.73;;;4.70;99.90;;;;;;5113464;28;20371;-82
2022/01/30 11:06:00;;;;;;;1.60;0.80;;;4.70;99.90;;;;;;5116954;28;20027;-82
2022/01/30 11:08:27;;;;;;;3.38;2.05;;;4.70;99.90;;;;;;5115920;28;20072;-82
2022/01/30 11:11:09;;;;;;;2.70;1.63;;;4.70;99.90;;;;;;5117409;28;20064;-82
2022/01/30 11:13:48;;;;;;;3.72;2.20;;;4.70;99.90;;;;;;5118005;28;20392;-83
2022/01/30 11:19:00;;;;;;;4.10;3.08;;;4.70;99.90;;;;;;5118664;28;20027;-83
2022/01/30 11:21:27;;;;;;;2.10;0.75;;;4.60;99.90;;;;;;5117913;28;20035;-84
2022/01/30 11:23:54;;;;;;;1.23;0.70;;;4.50;99.90;;;;;;5118050;28;20395;-83
2022/01/30 11:26:20;;;;;;;4.63;0.77;;;4.40;99.90;;;;;;5118098;28;20107;-83
2022/01/30 11:28:46;;;;;;;3.92;1.38;;;4.40;99.90;;;;;;5116342;28;20110;-83
2022/01/30 11:31:16;;;;;;;12.65;3.05;;;4.40;99.90;;;;;;5116277;28;20044;-83
2022/01/30 11:33:44;;;;;;;4.82;1.80;;;4.30;99.90;;;;;;5117381;28;20020;-84
2022/01/30 11:36:11;;;;;;;4.05;1.00;;;4.30;99.90;;;;;;5116431;28;20024;-83
2022/01/30 11:38:39;;;;;;;2.53;1.00;;;4.20;99.90;;;;;;5117458;28;20472;-84
2022/01/30 11:41:23;;;;;;;1.60;0.82;;;4.30;99.90;;;;;;5116112;28;20387;-83
2022/01/30 11:44:20;;;;;;;1.27;0.60;;;4.30;99.90;;;;;;5117110;28;20035;-83
2022/01/30 11:46:52;;;;;;;1.65;0.75;;;4.30;99.90;;;;;;5115745;28;20032;-83
2022/01/30 11:49:18;;;;;;;1.65;0.70;;;4.30;99.90;;;;;;5115997;28;20032;-83
2022/01/30 11:51:52;;;;;;;2.38;0.90;;;4.30;99.90;;;;;;5115860;28;20047;-83
2022/01/30 11:54:42;;;;;;;1.83;1.00;;;4.40;99.90;;;;;;5117169;28;20384;-83
2022/01/30 11:57:20;;;;;;;1.85;0.70;;;4.40;99.90;;;;;;5117354;28;20030;-84
2022/01/30 11:59:47;;;;;;;3.00;0.90;;;4.50;99.90;;;;;;5116651;28;20028;-84
2022/01/30 12:02:29;;;;;;;5.85;1.27;;;4.60;99.90;;;;;;5116703;28;20047;-84
2022/01/30 12:04:56;;;;;;;2.78;1.00;;;4.70;99.90;;;;;;5115230;28;20059;-83
2022/01/30 12:07:38;;;;;;;3.88;1.23;;;4.80;99.90;;;;;;5115851;28;20375;-83
2022/01/30 12:10:15;;;;;;;2.80;0.80;;;4.90;99.90;;;;;;5116950;28;20023;-83
2022/01/30 12:12:52;;;;;;;2.58;0.70;;;4.90;99.90;;;;;;5115288;28;20039;-82
2022/01/30 12:15:38;;;;;;;2.80;0.93;;;4.90;99.90;;;;;;5115671;28;20085;-81
2022/01/30 12:18:04;;;;;;;2.10;0.98;;;4.90;99.90;;;;;;5115955;28;20089;-81
2022/01/30 12:20:33;;;;;;;2.28;0.70;;;4.90;99.90;;;;;;5116262;28;20023;-81
2022/01/30 12:22:59;;;;;;;1.67;0.57;;;5.00;99.90;;;;;;5116057;28;20023;-81
2022/01/30 12:25:31;;;;;;;2.38;0.73;;;5.00;99.90;;;;;;5116091;28;20076;-81
2022/01/30 12:28:00;;;;;;;0.77;0.50;;;5.10;99.90;;;;;;5116476;28;20115;-82
2022/01/30 12:30:46;;;;;;;6.68;2.50;;;5.30;99.90;;;;;;5114458;28;20028;-82
2022/01/30 12:33:37;;;;;;;4.28;1.73;;;5.40;99.90;;;;;;5115705;28;20061;-81
2022/01/30 12:36:10;;;;;;;1.13;0.75;;;5.60;99.90;;;;;;5114705;28;20424;-81
2022/01/30 12:38:37;;;;;;;2.47;1.40;;;5.70;99.90;;;;;;5114294;28;20031;-81
2022/01/30 12:41:20;;;;;;;0.98;0.40;;;5.80;99.90;;;;;;5114785;28;20114;-81
2022/01/30 12:43:51;;;;;;;2.33;0.88;;;5.80;99.90;;;;;;5114360;28;20059;-82
2022/01/30 12:46:17;;;;;;;1.73;1.17;;;5.90;99.90;;;;;;5114601;28;20031;-83
2022/01/30 12:48:57;;;;;;;1.80;0.90;;;6.00;99.90;;;;;;5114736;28;20024;-83
2022/01/30 12:51:23;;;;;;;7.07;4.30;;;6.10;99.10;;;;;;5114739;28;20023;-83
2022/01/30 12:53:49;;;;;;;2.85;1.20;;;6.20;98.90;;;;;;5115661;28;20098;-84
2022/01/30 12:56:16;;;;;;;4.60;2.92;;;6.20;96.80;;;;;;5114262;28;20442;-82
2022/01/30 12:58:48;;;;;;;1.92;1.20;;;6.30;96.70;;;;;;5115768;28;20020;-83
2022/01/30 13:01:14;;;;;;;1.95;0.50;;;6.30;97.20;;;;;;5115543;28;20055;-83
2022/01/30 13:03:41;;;;;;;0.60;0.30;;;6.40;96.60;;;;;;5115797;28;20023;-83
2022/01/30 13:06:07;;;;;;;1.30;0.65;;;6.50;95.10;;;;;;5114196;28;20020;-83
2022/01/30 13:08:49;;;;;;;2.25;1.00;;;6.70;94.40;;;;;;5115422;28;20026;-83
2022/01/30 13:11:24;;;;;;;1.10;0.50;;;6.90;94.60;;;;;;5115846;28;20027;-84
2022/01/30 13:14:09;;;;;;;0.68;0.40;;;7.00;93.90;;;;;;5113961;28;20016;-84
2022/01/30 13:16:42;;;;;;;0.85;0.50;;;7.10;93.90;;;;;;5113137;28;20028;-85
2022/01/30 13:19:14;;;;;;;1.80;0.80;;;7.10;94.10;;;;;;5113543;28;20031;-84
2022/01/30 13:21:46;;;;;;;2.63;1.00;;;7.20;91.80;;;;;;5113502;28;20051;-84
2022/01/30 13:24:18;;;;;;;3.80;1.88;;;7.20;92.10;;;;;;5113313;28;20027;-84
2022/01/30 13:26:45;;;;;;;3.35;1.00;;;7.30;93.60;;;;;;5113166;28;20031;-84
2022/01/30 13:29:21;;;;;;;1.35;0.80;;;7.20;85.90;;;;;;5113084;28;20471;-84
2022/01/30 13:31:57;;;;;;;1.48;0.35;;;7.40;90.10;;;;;;5113289;28;20016;-85
2022/01/30 13:34:32;;;;;;;3.35;1.58;;;7.40;90.90;;;;;;5113347;28;20106;-85
2022/01/30 13:37:06;;;;;;;5.88;2.50;;;7.30;87.10;;;;;;5114538;28;20023;-83
2022/01/30 13:39:38;;;;;;;2.35;1.00;;;7.20;87.10;;;;;;5114667;28;20107;-82
2022/01/30 13:45:05;;;;;;;5.18;1.30;;;7.30;81.00;;;;;;5115328;28;20024;-83
2022/01/30 13:47:31;;;;;;;2.78;1.80;;;7.30;84.30;;;;;;5113668;28;20034;-83
2022/01/30 13:50:00;;;;;;;2.92;1.65;;;7.30;81.20;;;;;;5113414;28;20048;-83
2022/01/30 13:52:31;;;;;;;5.25;2.40;;;7.30;82.90;;;;;;5113420;28;20035;-84
2022/01/30 13:54:59;;;;;;;4.85;2.30;;;7.40;83.50;;;;;;5113957;28;20096;-84
2022/01/30 13:57:31;;;;;;;7.45;4.70;;;7.30;82.10;;;;;;5113693;28;20080;-85
2022/01/30 14:00:13;;;;;;;2.75;1.30;;;7.20;81.40;;;;;;5113638;28;20028;-83